createdAt,value
2022-07-28T00:00:41.477Z,52.70
2022-07-28T00:03:09.401Z,52.90
2022-07-28T00:05:39.081Z,53.10
2022-07-28T00:08:06.924Z,53.20
2022-07-28T00:10:34.801Z,53.20
2022-07-28T00:13:02.716Z,53.20
2022-07-28T00:15:34.551Z,53.30
2022-07-28T00:18:02.463Z,53.30
2022-07-28T00:20:30.690Z,53.40
2022-07-28T00:23:00.102Z,53.60
2022-07-28T00:25:28.093Z,53.60
2022-07-28T00:27:55.962Z,53.70
2022-07-28T00:30:28.715Z,53.70
2022-07-28T00:32:58.871Z,53.70
2022-07-28T00:35:31.126Z,53.70
2022-07-28T00:38:01.374Z,53.70
2022-07-28T00:40:43.395Z,53.80
2022-07-28T00:43:11.384Z,54.00
2022-07-28T00:45:39.538Z,54.20
2022-07-28T00:48:07.541Z,54.20
2022-07-28T00:50:35.549Z,54.30
2022-07-28T00:53:04.905Z,54.60
2022-07-28T00:55:34.682Z,54.60
2022-07-28T00:58:22.629Z,55.30
2022-07-28T01:00:50.660Z,54.60
2022-07-28T01:03:19.421Z,54.70
2022-07-28T01:05:52.528Z,54.70
2022-07-28T01:08:24.906Z,54.80
2022-07-28T01:10:57.284Z,55.00
2022-07-28T01:13:33.151Z,55.00
2022-07-28T01:16:03.158Z,55.10
2022-07-28T01:18:33.975Z,55.20
2022-07-28T01:21:04.633Z,55.40
2022-07-28T01:23:52.285Z,55.70
2022-07-28T01:26:25.712Z,56.00
2022-07-28T01:29:03.627Z,55.90
2022-07-28T01:31:37.056Z,55.80
2022-07-28T01:34:07.980Z,55.80
2022-07-28T01:36:39.968Z,55.70
2022-07-28T01:39:07.887Z,55.60
2022-07-28T01:41:37.453Z,55.60
2022-07-28T01:44:07.056Z,55.70
2022-07-28T01:46:37.104Z,55.80
2022-07-28T01:49:06.375Z,56.50
2022-07-28T01:51:34.690Z,55.70
2022-07-28T01:54:03.062Z,55.80
2022-07-28T01:56:32.152Z,56.10
2022-07-28T01:59:04.093Z,56.40
2022-07-28T02:01:33.175Z,56.70
2022-07-28T02:04:03.953Z,56.90
2022-07-28T02:06:34.735Z,57.10
2022-07-28T02:09:03.678Z,57.30
2022-07-28T02:11:40.974Z,57.30
2022-07-28T02:14:10.212Z,57.20
2022-07-28T02:16:40.274Z,57.00
2022-07-28T02:19:10.032Z,57.00
2022-07-28T02:21:39.545Z,57.10
2022-07-28T02:24:07.644Z,57.30
2022-07-28T02:26:36.954Z,57.20
2022-07-28T02:29:06.159Z,57.10
2022-07-28T02:31:40.525Z,57.10
2022-07-28T02:34:13.857Z,57.00
2022-07-28T02:36:44.905Z,57.00
2022-07-28T02:39:19.146Z,57.00
2022-07-28T02:41:49.448Z,57.10
2022-07-28T02:44:19.510Z,56.90
2022-07-28T02:46:48.958Z,57.00
2022-07-28T02:49:20.511Z,57.10
2022-07-28T02:51:49.597Z,57.50
2022-07-28T02:54:18.529Z,58.00
2022-07-28T02:56:53.552Z,58.30
2022-07-28T02:59:22.262Z,58.60
2022-07-28T03:01:50.670Z,58.50
2022-07-28T03:04:41.175Z,58.50
2022-07-28T03:07:11.019Z,58.40
2022-07-28T03:09:40.138Z,58.50
2022-07-28T03:12:08.191Z,58.30
2022-07-28T03:14:36.449Z,58.10
2022-07-28T03:17:07.431Z,58.00
2022-07-28T03:19:36.913Z,57.90
2022-07-28T03:22:05.262Z,57.90
2022-07-28T03:24:34.865Z,58.00
2022-07-28T03:27:05.919Z,58.10
2022-07-28T03:29:34.450Z,58.10
2022-07-28T03:32:02.474Z,58.10
2022-07-28T03:34:30.683Z,58.20
2022-07-28T03:37:02.275Z,58.10
2022-07-28T03:39:32.740Z,58.10
2022-07-28T03:42:00.822Z,58.30
2022-07-28T03:44:29.947Z,58.20
2022-07-28T03:46:58.334Z,58.20
2022-07-28T03:49:26.671Z,58.20
2022-07-28T03:51:54.596Z,58.10
2022-07-28T03:54:23.928Z,58.00
2022-07-28T03:56:51.852Z,58.00
2022-07-28T03:59:20.487Z,57.90
2022-07-28T04:01:48.760Z,57.90
2022-07-28T04:04:16.910Z,57.90
2022-07-28T04:06:45.083Z,57.90
2022-07-28T04:09:12.942Z,58.00
2022-07-28T04:11:43.665Z,58.10
2022-07-28T04:14:16.500Z,58.10
2022-07-28T04:16:47.531Z,58.20
2022-07-28T04:19:16.257Z,58.20
2022-07-28T04:21:44.156Z,58.40
2022-07-28T04:24:13.215Z,58.60
2022-07-28T04:26:44.171Z,58.60
2022-07-28T04:29:12.232Z,58.70
2022-07-28T04:31:40.134Z,58.90
2022-07-28T04:34:08.051Z,59.20
2022-07-28T04:36:41.983Z,59.50
2022-07-28T04:39:11.091Z,59.50
2022-07-28T04:41:39.642Z,59.40
2022-07-28T04:44:13.308Z,59.40
2022-07-28T04:46:41.756Z,59.40
2022-07-28T04:49:17.841Z,59.40
2022-07-28T04:51:54.342Z,59.40
2022-07-28T04:54:26.934Z,59.30
2022-07-28T04:56:54.835Z,58.90
2022-07-28T04:59:25.570Z,58.50
2022-07-28T05:01:58.420Z,58.40
2022-07-28T05:04:32.509Z,58.30
2022-07-28T05:07:13.074Z,58.10
2022-07-28T05:09:43.001Z,57.90
2022-07-28T05:12:18.974Z,57.70
2022-07-28T05:18:30.195Z,57.30
2022-07-28T05:25:26.839Z,56.70
2022-07-28T05:28:23.957Z,56.80
2022-07-28T05:31:22.488Z,56.00
2022-07-28T05:34:51.672Z,56.10
2022-07-28T05:41:30.510Z,55.80
2022-07-28T05:50:37.458Z,55.60
2022-07-28T05:53:23.194Z,55.10
2022-07-28T05:56:50.579Z,54.80
2022-07-28T05:59:13.357Z,54.60
2022-07-28T06:06:00.755Z,54.30
2022-07-28T06:08:54.361Z,53.70
2022-07-28T06:15:02.280Z,52.70
2022-07-28T06:20:37.972Z,52.70
2022-07-28T06:26:12.691Z,52.50
2022-07-28T06:28:48.480Z,52.10
2022-07-28T06:31:25.877Z,52.40
2022-07-28T06:34:05.785Z,52.30
2022-07-28T06:36:37.908Z,51.90
2022-07-28T06:39:10.523Z,51.70
2022-07-28T06:41:44.473Z,51.50
2022-07-28T06:44:18.779Z,51.10
2022-07-28T06:46:49.457Z,50.30
2022-07-28T06:49:29.897Z,49.80
2022-07-28T06:52:00.994Z,49.40
2022-07-28T06:54:39.933Z,48.70
2022-07-28T06:57:16.959Z,48.60
2022-07-28T06:59:46.407Z,48.50
2022-07-28T07:02:14.410Z,48.50
2022-07-28T07:04:43.805Z,48.20
2022-07-28T07:07:16.841Z,47.90
2022-07-28T07:09:45.544Z,47.80
2022-07-28T07:12:13.463Z,47.10
2022-07-28T07:14:41.436Z,46.20
2022-07-28T07:17:09.282Z,46.40
2022-07-28T07:19:37.334Z,46.10
2022-07-28T07:22:06.846Z,45.60
2022-07-28T07:24:35.362Z,44.90
2022-07-28T07:27:03.187Z,44.80
2022-07-28T07:29:31.437Z,44.40
2022-07-28T07:31:59.539Z,43.60
2022-07-28T07:34:27.472Z,43.50
2022-07-28T07:36:55.352Z,43.60
2022-07-28T07:39:24.599Z,43.00
2022-07-28T07:41:52.625Z,42.60
2022-07-28T07:44:22.951Z,42.80
2022-07-28T07:46:50.852Z,42.40
2022-07-28T07:49:18.849Z,41.30
2022-07-28T07:51:55.751Z,40.60
2022-07-28T07:54:25.015Z,40.30
2022-07-28T07:56:52.956Z,39.90
2022-07-28T07:59:20.793Z,39.80
2022-07-28T08:01:54.246Z,39.60
2022-07-28T08:04:25.394Z,39.80
2022-07-28T08:06:53.821Z,39.30
2022-07-28T08:09:22.777Z,38.40
2022-07-28T08:11:57.051Z,38.10
2022-07-28T08:14:25.197Z,38.40
2022-07-28T08:16:54.352Z,38.00
2022-07-28T08:19:22.475Z,38.20
2022-07-28T08:21:51.509Z,37.70
2022-07-28T08:24:32.357Z,37.70
2022-07-28T08:27:06.949Z,38.00
2022-07-28T08:29:36.905Z,37.70
2022-07-28T08:32:06.017Z,37.80
2022-07-28T08:34:34.251Z,37.70
2022-07-28T08:37:05.970Z,37.50
2022-07-28T08:39:34.798Z,37.00
2022-07-28T08:42:08.592Z,36.70
2022-07-28T08:44:43.304Z,36.30
2022-07-28T08:47:12.174Z,36.40
2022-07-28T08:49:41.869Z,36.50
2022-07-28T08:52:11.249Z,35.90
2022-07-28T08:54:44.301Z,35.70
2022-07-28T08:57:13.632Z,35.70
2022-07-28T08:59:43.018Z,34.40
2022-07-28T09:02:12.340Z,34.80
2022-07-28T09:04:40.723Z,34.80
2022-07-28T09:07:08.821Z,35.20
2022-07-28T09:09:36.873Z,35.00
2022-07-28T09:12:08.453Z,34.10
2022-07-28T09:14:36.384Z,34.20
2022-07-28T09:17:06.099Z,34.10
2022-07-28T09:19:35.799Z,34.10
2022-07-28T09:22:04.340Z,33.50
2022-07-28T09:24:39.436Z,33.50
2022-07-28T09:27:08.361Z,33.70
2022-07-28T09:29:37.265Z,33.30
2022-07-28T09:32:09.964Z,33.50
2022-07-28T09:34:42.083Z,33.50
2022-07-28T09:37:18.643Z,33.00
2022-07-28T09:39:49.663Z,33.40
2022-07-28T09:42:18.423Z,33.00
2022-07-28T09:45:05.882Z,32.80
2022-07-28T09:47:35.762Z,32.70
2022-07-28T09:50:03.880Z,32.90
2022-07-28T09:52:32.813Z,32.50
2022-07-28T09:55:01.583Z,32.70
2022-07-28T09:57:31.576Z,32.50
2022-07-28T10:00:03.000Z,32.00
2022-07-28T10:02:32.511Z,32.30
2022-07-28T10:05:01.912Z,32.40
2022-07-28T10:07:30.387Z,30.90
2022-07-28T10:10:00.848Z,31.00
2022-07-28T10:12:30.694Z,31.20
2022-07-28T10:14:59.536Z,31.30
2022-07-28T10:17:29.174Z,31.20
2022-07-28T10:19:58.456Z,31.60
2022-07-28T10:22:33.380Z,31.40
2022-07-28T10:25:03.957Z,31.00
2022-07-28T10:27:54.569Z,30.00
2022-07-28T10:30:22.597Z,30.40
2022-07-28T10:32:50.653Z,29.80
2022-07-28T10:35:19.007Z,30.10
2022-07-28T10:38:00.492Z,29.90
2022-07-28T10:40:33.105Z,30.00
2022-07-28T10:43:01.350Z,30.40
2022-07-28T10:45:48.135Z,29.90
2022-07-28T10:48:17.606Z,30.10
2022-07-28T10:50:45.959Z,30.10
2022-07-28T10:53:19.715Z,29.70
2022-07-28T10:55:50.360Z,29.60
2022-07-28T10:58:25.275Z,29.60
2022-07-28T11:01:02.205Z,29.80
2022-07-28T11:03:37.831Z,29.30
2022-07-28T11:06:24.421Z,29.50
2022-07-28T11:08:56.697Z,29.70
2022-07-28T11:12:03.435Z,29.40
2022-07-28T11:14:37.580Z,30.10
2022-07-28T11:17:23.872Z,29.80
2022-07-28T11:22:44.956Z,29.80
2022-07-28T11:25:18.818Z,29.30
2022-07-28T11:28:02.129Z,29.30
2022-07-28T11:31:01.327Z,28.50
2022-07-28T11:33:47.042Z,28.60
2022-07-28T11:36:15.163Z,28.60
2022-07-28T11:39:03.119Z,28.40
2022-07-28T11:41:34.557Z,28.20
2022-07-28T11:44:25.829Z,28.40
2022-07-28T11:46:54.135Z,28.80
2022-07-28T11:49:23.454Z,29.20
2022-07-28T11:52:10.881Z,28.80
2022-07-28T11:54:52.223Z,29.00
2022-07-28T11:57:24.363Z,28.70
2022-07-28T11:59:54.417Z,27.80
2022-07-28T12:02:23.470Z,28.00
2022-07-28T12:05:02.728Z,28.20
2022-07-28T12:07:37.809Z,28.40
2022-07-28T12:10:44.220Z,28.40
2022-07-28T12:13:26.082Z,28.30
2022-07-28T12:15:54.171Z,28.30
2022-07-28T12:18:24.620Z,28.20
2022-07-28T12:20:54.863Z,27.80
2022-07-28T12:23:38.654Z,28.20
2022-07-28T12:26:07.356Z,28.20
2022-07-28T12:28:43.384Z,28.10
2022-07-28T12:31:11.867Z,28.30
2022-07-28T12:33:42.527Z,28.40
2022-07-28T12:36:10.880Z,28.40
2022-07-28T12:38:40.025Z,28.40
2022-07-28T12:41:24.767Z,28.20
2022-07-28T12:43:57.915Z,28.10
2022-07-28T12:46:28.318Z,28.00
2022-07-28T12:48:57.746Z,28.30
2022-07-28T12:51:32.781Z,28.10
2022-07-28T12:54:01.058Z,28.30
2022-07-28T12:56:29.029Z,28.30
2022-07-28T12:59:09.115Z,27.80
2022-07-28T13:01:47.804Z,28.10
2022-07-28T13:04:18.415Z,28.20
2022-07-28T13:06:55.695Z,27.90
2022-07-28T13:09:26.779Z,28.00
2022-07-28T13:12:01.618Z,27.80
2022-07-28T13:14:44.780Z,27.40
2022-07-28T13:17:12.855Z,27.30
2022-07-28T13:19:43.673Z,27.70
2022-07-28T13:22:11.682Z,27.70
2022-07-28T13:24:39.617Z,27.70
2022-07-28T13:27:08.770Z,27.40
2022-07-28T13:29:36.744Z,27.40
2022-07-28T13:32:06.370Z,27.60
2022-07-28T13:34:36.679Z,27.50
2022-07-28T13:37:08.723Z,27.30
2022-07-28T13:39:36.910Z,27.30
2022-07-28T13:42:05.366Z,27.40
2022-07-28T13:44:34.592Z,27.30
2022-07-28T13:47:03.115Z,27.30
2022-07-28T13:49:37.447Z,27.00
2022-07-28T13:52:06.978Z,26.10
2022-07-28T13:54:41.390Z,26.10
2022-07-28T13:57:09.376Z,26.70
2022-07-28T13:59:40.929Z,26.40
2022-07-28T14:02:15.192Z,26.30
2022-07-28T14:04:50.687Z,26.30
2022-07-28T14:07:20.759Z,26.00
2022-07-28T14:09:50.825Z,26.30
2022-07-28T14:12:21.103Z,26.30
2022-07-28T14:14:49.226Z,26.50
2022-07-28T14:20:12.570Z,26.20
2022-07-28T14:22:40.694Z,26.50
2022-07-28T14:25:08.867Z,26.30
2022-07-28T14:27:37.278Z,26.70
2022-07-28T14:30:05.840Z,26.70
2022-07-28T14:32:34.679Z,26.60
2022-07-28T14:35:02.716Z,26.50
2022-07-28T14:37:55.213Z,26.00
2022-07-28T14:40:20.512Z,26.30
2022-07-28T14:42:48.966Z,26.30
2022-07-28T14:45:17.069Z,25.90
2022-07-28T14:47:45.595Z,25.90
2022-07-28T14:50:14.011Z,26.10
2022-07-28T14:52:44.790Z,26.30
2022-07-28T14:55:13.375Z,26.50
2022-07-28T14:57:48.118Z,26.60
2022-07-28T15:00:21.156Z,26.80
2022-07-28T15:02:49.240Z,26.90
2022-07-28T15:05:17.268Z,27.00
2022-07-28T15:07:49.350Z,27.20
2022-07-28T15:10:17.576Z,27.30
2022-07-28T15:12:45.770Z,27.30
2022-07-28T15:15:16.709Z,27.30
2022-07-28T15:17:48.337Z,27.50
2022-07-28T15:20:18.214Z,27.40
2022-07-28T15:22:47.655Z,27.30
2022-07-28T15:25:20.626Z,27.20
2022-07-28T15:27:48.638Z,27.20
2022-07-28T15:30:16.535Z,27.30
2022-07-28T15:32:56.051Z,27.50
2022-07-28T15:35:24.621Z,27.10
2022-07-28T15:37:54.005Z,27.40
2022-07-28T15:40:22.165Z,27.30
2022-07-28T15:42:50.152Z,27.40
2022-07-28T15:45:18.315Z,27.30
2022-07-28T15:47:49.051Z,27.40
2022-07-28T15:50:19.019Z,27.60
2022-07-28T15:52:46.989Z,27.50
2022-07-28T15:55:16.830Z,27.30
2022-07-28T15:57:45.373Z,27.20
2022-07-28T16:00:13.685Z,27.00
2022-07-28T16:02:41.713Z,27.20
2022-07-28T16:05:09.947Z,27.20
2022-07-28T16:07:41.818Z,27.30
2022-07-28T16:10:12.621Z,27.40
2022-07-28T16:12:42.049Z,27.60
2022-07-28T16:15:12.082Z,27.80
2022-07-28T16:17:41.759Z,27.70
2022-07-28T16:20:10.561Z,27.70
2022-07-28T16:22:40.671Z,27.60
2022-07-28T16:25:11.603Z,27.60
2022-07-28T16:27:46.443Z,27.30
2022-07-28T16:30:14.756Z,27.30
2022-07-28T16:32:43.106Z,27.10
2022-07-28T16:35:11.302Z,27.20
2022-07-28T16:37:40.255Z,27.10
2022-07-28T16:40:25.747Z,27.30
2022-07-28T16:46:43.794Z,27.30
2022-07-28T16:49:27.983Z,27.80
2022-07-28T17:15:24.961Z,28.70
2022-07-28T17:17:54.520Z,28.80
2022-07-28T17:20:22.742Z,28.90
2022-07-28T17:22:53.655Z,29.00
2022-07-28T17:25:48.909Z,29.00
2022-07-28T17:28:17.110Z,29.00
2022-07-28T17:30:45.081Z,28.90
2022-07-28T17:33:13.066Z,28.90
2022-07-28T17:35:41.008Z,29.10
2022-07-28T17:38:18.147Z,29.20
2022-07-28T17:40:51.115Z,29.10
2022-07-28T17:43:19.518Z,29.20
2022-07-28T17:45:47.695Z,29.10
2022-07-28T17:48:18.634Z,29.10
2022-07-28T17:50:51.311Z,29.20
2022-07-28T17:53:20.307Z,29.00
2022-07-28T17:56:00.839Z,29.20
2022-07-28T17:58:32.283Z,29.30
2022-07-28T18:01:10.913Z,29.40
2022-07-28T18:03:59.114Z,29.50
2022-07-28T18:06:40.336Z,29.40
2022-07-28T18:09:09.949Z,29.50
2022-07-28T18:11:57.961Z,29.50
2022-07-28T18:14:27.346Z,29.50
2022-07-28T18:16:55.348Z,29.50
2022-07-28T18:19:23.248Z,29.50
2022-07-28T18:21:51.145Z,29.60
2022-07-28T18:24:21.816Z,29.70
2022-07-28T18:26:51.861Z,29.70
2022-07-28T18:29:21.111Z,29.80
2022-07-28T18:31:52.674Z,29.80
2022-07-28T18:34:23.198Z,29.90
2022-07-28T18:36:55.996Z,30.00
2022-07-28T18:39:23.871Z,30.00
2022-07-28T18:41:54.660Z,30.10
2022-07-28T18:44:22.704Z,31.10
2022-07-28T18:46:50.574Z,30.60
2022-07-28T18:49:20.234Z,30.70
2022-07-28T18:51:49.343Z,30.80
2022-07-28T18:54:27.763Z,31.10
2022-07-28T18:56:57.554Z,31.10
2022-07-28T18:59:26.581Z,31.20
2022-07-28T19:01:54.536Z,31.40
2022-07-28T19:04:24.942Z,31.40
2022-07-28T19:06:52.822Z,31.60
2022-07-28T19:09:20.881Z,31.70
2022-07-28T19:11:48.884Z,31.70
2022-07-28T19:14:18.641Z,32.00
2022-07-28T19:16:46.953Z,32.10
2022-07-28T19:19:15.152Z,32.20
2022-07-28T19:21:43.815Z,32.30
2022-07-28T19:24:12.493Z,32.40
2022-07-28T19:26:44.335Z,32.60
2022-07-28T19:29:12.412Z,32.60
2022-07-28T19:31:42.356Z,32.80
2022-07-28T19:34:10.677Z,33.00
2022-07-28T19:36:44.519Z,33.10
2022-07-28T19:39:12.913Z,33.10
2022-07-28T19:41:40.794Z,33.40
2022-07-28T19:44:08.678Z,33.50
2022-07-28T19:46:36.856Z,33.70
2022-07-28T19:49:09.092Z,34.00
2022-07-28T19:51:39.857Z,34.10
2022-07-28T19:54:07.796Z,34.30
2022-07-28T19:56:39.563Z,34.40
2022-07-28T19:59:11.082Z,34.50
2022-07-28T20:01:47.031Z,34.50
2022-07-28T20:04:22.357Z,34.70
2022-07-28T20:06:55.661Z,34.50
2022-07-28T20:09:23.804Z,34.40
2022-07-28T20:12:00.466Z,34.30
2022-07-28T20:14:33.500Z,34.50
2022-07-28T20:17:01.575Z,34.60
2022-07-28T20:19:31.189Z,34.70
2022-07-28T20:21:59.232Z,34.70
2022-07-28T20:24:35.662Z,34.60
2022-07-28T20:27:05.856Z,34.70
2022-07-28T20:29:33.840Z,34.60
2022-07-28T20:32:04.404Z,34.60
2022-07-28T20:34:38.962Z,34.40
2022-07-28T20:37:28.479Z,34.30
2022-07-28T20:39:56.998Z,34.20
2022-07-28T20:42:27.731Z,34.20
2022-07-28T20:44:55.919Z,34.20
2022-07-28T20:47:26.001Z,34.20
2022-07-28T20:49:55.699Z,34.10
2022-07-28T20:52:23.741Z,34.10
2022-07-28T20:54:54.586Z,33.90
2022-07-28T20:57:22.865Z,33.70
2022-07-28T20:59:52.727Z,33.70
2022-07-28T21:02:20.681Z,33.70
2022-07-28T21:04:50.434Z,33.70
2022-07-28T21:07:59.925Z,33.60
2022-07-28T21:10:18.163Z,33.60
2022-07-28T21:12:48.151Z,33.30
2022-07-28T21:15:17.201Z,33.40
2022-07-28T21:17:45.069Z,33.10
2022-07-28T21:20:15.070Z,32.70
2022-07-28T21:22:44.343Z,32.60
2022-07-28T21:25:15.039Z,32.60
2022-07-28T21:28:00.207Z,32.70
2022-07-28T21:30:30.188Z,32.60
2022-07-28T21:32:58.405Z,32.60
2022-07-28T21:35:26.309Z,32.70
2022-07-28T21:37:55.530Z,32.90
2022-07-28T21:40:24.190Z,32.90
2022-07-28T21:42:52.787Z,32.70
2022-07-28T21:45:20.963Z,32.60
2022-07-28T21:47:49.110Z,32.60
2022-07-28T21:50:17.066Z,32.60
2022-07-28T21:52:44.953Z,32.60
2022-07-28T21:55:14.368Z,32.70
2022-07-28T21:57:42.325Z,32.70
2022-07-28T22:00:11.478Z,32.60
2022-07-28T22:02:40.857Z,32.60
2022-07-28T22:05:09.262Z,32.60
2022-07-28T22:07:37.310Z,32.50
2022-07-28T22:10:05.637Z,32.50
2022-07-28T22:12:34.928Z,32.40
2022-07-28T22:15:02.899Z,32.50
2022-07-28T22:17:30.792Z,32.60
2022-07-28T22:20:01.688Z,32.70
2022-07-28T22:22:29.576Z,32.80
2022-07-28T22:24:58.615Z,32.80
2022-07-28T22:27:26.565Z,32.70
2022-07-28T22:29:55.915Z,32.80
2022-07-28T22:32:26.694Z,32.70
2022-07-28T22:34:57.568Z,32.80
2022-07-28T22:37:25.503Z,32.80
2022-07-28T22:39:53.484Z,32.90
2022-07-28T22:42:21.345Z,32.80
2022-07-28T22:44:49.379Z,32.90
2022-07-28T22:47:18.767Z,32.90
2022-07-28T22:49:46.729Z,32.90
2022-07-28T22:52:14.726Z,32.80
2022-07-28T22:54:42.633Z,32.90
2022-07-28T22:57:10.497Z,32.90
2022-07-28T22:59:39.781Z,32.90
2022-07-28T23:02:11.088Z,32.90
2022-07-28T23:04:42.099Z,32.90
2022-07-28T23:07:12.127Z,33.00
2022-07-28T23:09:41.637Z,33.00
2022-07-28T23:12:10.043Z,33.10
2022-07-28T23:14:38.207Z,33.30
2022-07-28T23:17:06.231Z,33.30
2022-07-28T23:19:34.110Z,33.60
2022-07-28T23:22:09.521Z,33.60
2022-07-28T23:24:37.414Z,33.60
2022-07-28T23:27:05.339Z,33.60
2022-07-28T23:29:33.240Z,33.60
2022-07-28T23:32:01.468Z,33.70
2022-07-28T23:34:29.349Z,33.80
2022-07-28T23:36:59.816Z,33.90
2022-07-28T23:39:29.836Z,33.80
